Time;durP1;ratioP1;P1;durP2;ratioP2;P2;SDS_P1;SDS_P2;PMS_P1;PMS_P2;Temp;Humidity;BMP_temperature;BMP_pressure;BME280_temperature;BME280_humidity;BME280_pressure;Samples;Min_cycle;Max_cycle;Signal;HPM_P1;HPM_P2
2023/07/26 00:00:54;;;;;;;14.50;13.30;;;14.20;99.90;;;;;;5035392;28;20232;-74
2023/07/26 00:03:21;;;;;;;14.30;13.30;;;14.20;99.90;;;;;;5030876;28;20192;-74
2023/07/26 00:05:48;;;;;;;14.70;13.70;;;14.20;99.90;;;;;;5041316;28;20289;-75
2023/07/26 00:08:16;;;;;;;14.23;13.23;;;14.20;99.90;;;;;;5034875;28;20200;-74
2023/07/26 00:10:46;;;;;;;14.93;13.83;;;14.20;99.90;;;;;;5034563;28;20201;-75
2023/07/26 00:13:13;;;;;;;14.33;13.23;;;14.20;99.90;;;;;;5040578;28;20587;-75
2023/07/26 00:15:39;;;;;;;16.10;15.00;;;14.20;99.90;;;;;;5039717;28;20204;-75
2023/07/26 00:18:06;;;;;;;15.17;14.07;;;14.10;99.90;;;;;;5035965;28;20221;-75
2023/07/26 00:20:33;;;;;;;15.97;14.87;;;14.10;99.90;;;;;;5034235;28;20199;-74
2023/07/26 00:23:00;;;;;;;15.63;14.50;;;14.10;99.90;;;;;;5045165;28;20636;-74
2023/07/26 00:25:28;;;;;;;16.30;14.90;;;14.10;99.90;;;;;;5049104;28;20773;-74
2023/07/26 00:27:55;;;;;;;14.90;13.70;;;14.10;99.90;;;;;;5034452;28;20197;-75
2023/07/26 00:30:22;;;;;;;15.10;14.00;;;14.10;99.90;;;;;;5033906;28;20203;-75
2023/07/26 00:32:49;;;;;;;16.40;15.10;;;14.10;99.90;;;;;;5038763;28;20208;-74
2023/07/26 00:35:21;;;;;;;15.50;14.40;;;14.10;99.90;;;;;;5032982;28;20248;-74
2023/07/26 00:37:48;;;;;;;15.10;13.90;;;14.20;99.90;;;;;;5032849;28;20661;-75
2023/07/26 00:40:15;;;;;;;16.47;15.07;;;14.10;99.90;;;;;;5046480;28;20200;-75
2023/07/26 00:42:43;;;;;;;15.50;14.40;;;14.10;99.90;;;;;;5032527;28;20689;-74
2023/07/26 00:45:11;;;;;;;14.80;13.80;;;14.10;99.90;;;;;;5040707;28;20226;-75
2023/07/26 00:47:38;;;;;;;15.00;13.90;;;14.10;99.90;;;;;;5032770;28;20490;-74
2023/07/26 00:50:06;;;;;;;16.17;14.87;;;14.10;99.90;;;;;;5033863;28;20666;-74
2023/07/26 00:52:34;;;;;;;16.30;14.83;;;14.00;99.90;;;;;;5039909;28;20200;-75
2023/07/26 00:55:02;;;;;;;16.30;15.07;;;14.00;99.90;;;;;;5032613;28;20634;-75
2023/07/26 00:57:29;;;;;;;15.77;14.57;;;14.00;99.90;;;;;;5035725;28;20197;-75
2023/07/26 00:59:58;;;;;;;16.80;15.30;;;14.00;99.90;;;;;;5039560;28;20216;-75
2023/07/26 01:02:25;;;;;;;15.67;14.47;;;14.00;99.90;;;;;;5032492;28;20207;-75
2023/07/26 01:04:53;;;;;;;16.10;14.80;;;14.00;99.90;;;;;;5032604;28;20224;-75
2023/07/26 01:07:27;;;;;;;16.97;15.47;;;14.00;99.90;;;;;;5032143;28;20204;-75
2023/07/26 01:10:02;;;;;;;16.17;14.97;;;14.00;99.90;;;;;;5033572;28;20192;-74
2023/07/26 01:12:34;;;;;;;16.43;15.10;;;14.00;99.90;;;;;;5033220;28;20219;-74
2023/07/26 01:15:07;;;;;;;16.63;15.23;;;14.00;99.90;;;;;;5033252;28;20748;-74
2023/07/26 01:17:35;;;;;;;16.37;15.00;;;14.10;99.90;;;;;;5031568;28;20201;-74
2023/07/26 01:20:02;;;;;;;16.50;15.30;;;14.00;99.90;;;;;;5033003;28;20217;-74
2023/07/26 01:22:30;;;;;;;17.13;15.70;;;14.10;99.90;;;;;;5032467;28;20567;-74
2023/07/26 01:24:57;;;;;;;16.63;15.33;;;14.00;99.90;;;;;;5032210;28;20645;-75
2023/07/26 01:27:25;;;;;;;16.93;15.27;;;13.90;99.90;;;;;;5031864;28;20253;-74
2023/07/26 01:29:56;;;;;;;17.23;15.97;;;13.90;99.90;;;;;;5038928;28;20254;-74
2023/07/26 01:32:24;;;;;;;18.50;17.00;;;13.90;99.90;;;;;;5041067;28;20200;-75
2023/07/26 01:34:51;;;;;;;17.07;15.73;;;13.90;99.90;;;;;;5031697;28;20303;-74
2023/07/26 01:37:20;;;;;;;17.17;15.83;;;13.80;99.90;;;;;;5033196;28;20592;-74
2023/07/26 01:39:49;;;;;;;16.93;15.50;;;13.80;99.90;;;;;;5040898;28;20230;-74
2023/07/26 01:42:17;;;;;;;15.97;14.77;;;13.70;99.90;;;;;;5044854;28;20211;-74
2023/07/26 01:44:43;;;;;;;17.27;15.77;;;13.60;99.90;;;;;;5031505;28;20652;-74
2023/07/26 01:47:10;;;;;;;16.23;15.03;;;13.60;99.90;;;;;;5031519;28;20266;-74
2023/07/26 01:49:37;;;;;;;15.97;14.77;;;13.60;99.90;;;;;;5031328;28;20193;-74
2023/07/26 01:52:07;;;;;;;15.20;14.10;;;13.60;99.90;;;;;;5034524;28;20192;-74
2023/07/26 01:54:36;;;;;;;16.50;15.10;;;13.50;99.90;;;;;;5032720;28;20207;-74
2023/07/26 01:57:05;;;;;;;16.07;14.77;;;13.50;99.90;;;;;;5031310;28;20211;-75
2023/07/26 01:59:32;;;;;;;16.03;14.67;;;13.50;99.90;;;;;;5033137;28;20756;-74
2023/07/26 02:01:59;;;;;;;15.67;14.57;;;13.40;99.90;;;;;;5040596;28;20215;-74
2023/07/26 02:04:25;;;;;;;14.73;13.57;;;13.40;99.90;;;;;;5041436;28;20242;-74
2023/07/26 02:06:53;;;;;;;16.40;15.10;;;13.40;99.90;;;;;;5042876;28;20210;-74
2023/07/26 02:09:20;;;;;;;15.50;14.40;;;13.30;99.90;;;;;;5035454;28;20649;-74
2023/07/26 02:11:47;;;;;;;16.83;15.07;;;13.40;99.90;;;;;;5030921;28;20242;-75
2023/07/26 02:14:15;;;;;;;15.87;14.70;;;13.40;99.90;;;;;;5043548;28;20778;-74
2023/07/26 02:16:42;;;;;;;15.77;14.53;;;13.30;99.90;;;;;;5046040;28;20258;-74
2023/07/26 02:19:09;;;;;;;15.10;14.10;;;13.30;99.90;;;;;;5030592;28;20220;-74
2023/07/26 02:21:35;;;;;;;15.97;14.63;;;13.30;99.90;;;;;;5039866;28;20191;-74
2023/07/26 02:24:02;;;;;;;16.23;14.70;;;13.30;99.90;;;;;;5030707;28;20754;-74
2023/07/26 02:26:29;;;;;;;16.17;15.07;;;13.20;99.90;;;;;;5032017;28;20200;-75
2023/07/26 02:28:57;;;;;;;16.20;15.07;;;13.20;99.90;;;;;;5035847;28;20196;-75
2023/07/26 02:31:26;;;;;;;15.90;14.60;;;13.20;99.90;;;;;;5030630;28;20203;-74
2023/07/26 02:33:52;;;;;;;16.17;14.77;;;13.20;99.90;;;;;;5030540;28;20269;-74
2023/07/26 02:36:19;;;;;;;15.40;14.23;;;13.20;99.90;;;;;;5030627;28;20202;-74
2023/07/26 02:38:46;;;;;;;14.80;13.80;;;13.20;99.90;;;;;;5030465;28;20222;-74
2023/07/26 02:41:13;;;;;;;15.73;14.53;;;13.20;99.90;;;;;;5030774;28;20206;-77
2023/07/26 02:43:40;;;;;;;16.30;15.10;;;13.20;99.90;;;;;;5031576;28;20228;-74
2023/07/26 02:46:07;;;;;;;16.37;15.00;;;13.20;99.90;;;;;;5040578;28;20265;-74
2023/07/26 02:48:35;;;;;;;15.33;14.13;;;13.20;99.90;;;;;;5045018;28;20264;-74
2023/07/26 02:51:02;;;;;;;15.47;14.37;;;13.20;99.90;;;;;;5031086;28;20211;-76
2023/07/26 02:53:29;;;;;;;15.10;14.03;;;13.20;99.90;;;;;;5046744;28;20267;-77
2023/07/26 02:55:56;;;;;;;15.60;14.40;;;13.20;99.90;;;;;;5048730;28;20554;-77
2023/07/26 02:58:23;;;;;;;14.73;13.67;;;13.30;99.90;;;;;;5036089;28;20238;-76
2023/07/26 03:00:52;;;;;;;15.90;14.70;;;13.20;99.90;;;;;;5044237;28;20234;-76
2023/07/26 03:03:19;;;;;;;16.40;15.10;;;13.20;99.90;;;;;;5044650;28;20290;-77
2023/07/26 03:05:47;;;;;;;16.53;15.33;;;13.20;99.90;;;;;;5039775;28;20207;-76
2023/07/26 03:08:14;;;;;;;17.60;16.20;;;13.10;99.90;;;;;;5031661;28;20204;-77
2023/07/26 03:10:41;;;;;;;17.13;15.83;;;13.10;99.90;;;;;;5029887;28;20202;-76
2023/07/26 03:13:08;;;;;;;16.80;15.60;;;13.20;99.90;;;;;;5040038;28;20197;-77
2023/07/26 03:15:39;;;;;;;17.43;16.13;;;13.20;99.90;;;;;;5032291;28;20199;-76
2023/07/26 03:18:06;;;;;;;18.40;16.97;;;13.30;99.90;;;;;;5030068;28;20202;-77
2023/07/26 03:20:33;;;;;;;17.63;16.27;;;13.20;99.90;;;;;;5045551;28;20249;-76
2023/07/26 03:23:01;;;;;;;17.07;15.67;;;13.30;99.90;;;;;;5030611;28;20226;-76
2023/07/26 03:25:28;;;;;;;18.00;16.50;;;13.30;99.90;;;;;;5027410;28;20227;-76
2023/07/26 03:27:55;;;;;;;16.97;15.77;;;13.20;99.90;;;;;;5038302;28;20597;-76
2023/07/26 03:30:22;;;;;;;17.53;16.27;;;13.30;99.90;;;;;;5041352;28;20575;-76
2023/07/26 03:32:49;;;;;;;16.20;14.90;;;13.30;99.90;;;;;;5039442;28;20599;-76
2023/07/26 03:35:16;;;;;;;15.67;14.57;;;13.20;99.90;;;;;;5035544;28;20266;-76
2023/07/26 03:37:43;;;;;;;15.87;14.80;;;13.20;99.90;;;;;;5031008;28;20685;-76
2023/07/26 03:40:12;;;;;;;15.60;14.60;;;13.30;99.90;;;;;;5040520;28;20227;-77
2023/07/26 03:42:39;;;;;;;15.87;14.77;;;13.30;99.90;;;;;;5035460;28;20195;-76
2023/07/26 03:45:07;;;;;;;14.27;13.37;;;13.30;99.90;;;;;;5035817;28;20328;-77
2023/07/26 03:47:34;;;;;;;14.40;13.40;;;13.20;99.90;;;;;;5037157;28;20237;-77
2023/07/26 03:50:01;;;;;;;14.83;13.93;;;13.20;99.90;;;;;;5045559;28;20202;-77
2023/07/26 03:52:27;;;;;;;13.77;12.93;;;13.20;99.90;;;;;;5038179;28;20597;-77
2023/07/26 03:54:55;;;;;;;15.10;14.10;;;13.20;99.90;;;;;;5043147;28;20277;-77
2023/07/26 03:57:23;;;;;;;14.27;13.37;;;13.20;99.90;;;;;;5036182;28;20199;-76
2023/07/26 03:59:50;;;;;;;14.30;13.30;;;13.20;99.90;;;;;;5036927;28;20227;-77
2023/07/26 04:02:20;;;;;;;14.23;13.03;;;13.20;99.90;;;;;;5042748;28;20285;-76
2023/07/26 04:04:47;;;;;;;14.10;13.20;;;13.10;99.90;;;;;;5036504;28;20242;-76
2023/07/26 04:07:14;;;;;;;15.07;14.07;;;13.10;99.90;;;;;;5035963;28;20560;-76
2023/07/26 04:09:41;;;;;;;14.17;13.27;;;13.10;99.90;;;;;;5033764;28;20240;-76
2023/07/26 04:12:08;;;;;;;14.70;13.80;;;13.10;99.90;;;;;;5036853;28;20196;-75
2023/07/26 04:14:36;;;;;;;15.33;14.13;;;13.10;99.90;;;;;;5041652;28;20265;-77
2023/07/26 04:17:03;;;;;;;15.43;14.43;;;13.20;99.90;;;;;;5042664;28;20599;-76
2023/07/26 04:19:30;;;;;;;16.07;14.97;;;13.20;99.90;;;;;;5044562;28;20212;-76
2023/07/26 04:21:57;;;;;;;16.43;15.00;;;13.20;99.90;;;;;;5050943;28;20225;-77
2023/07/26 04:24:24;;;;;;;16.20;15.10;;;13.20;99.90;;;;;;5050072;28;20222;-77
2023/07/26 04:26:52;;;;;;;16.50;15.47;;;13.20;99.90;;;;;;5045584;28;20815;-77
2023/07/26 04:29:19;;;;;;;16.17;14.97;;;13.30;99.90;;;;;;5036806;28;20192;-77
2023/07/26 04:31:47;;;;;;;16.43;15.33;;;13.30;99.90;;;;;;5052435;28;20208;-77
2023/07/26 04:34:14;;;;;;;15.70;14.67;;;13.30;99.90;;;;;;5037320;28;20223;-77
2023/07/26 04:36:42;;;;;;;15.63;14.63;;;13.30;99.90;;;;;;5045086;28;20706;-77
2023/07/26 04:39:08;;;;;;;16.17;14.97;;;13.30;99.90;;;;;;5043845;28;20287;-77
2023/07/26 04:41:35;;;;;;;15.63;14.57;;;13.30;99.90;;;;;;5036735;28;20192;-76
2023/07/26 04:44:02;;;;;;;15.07;14.17;;;13.30;99.90;;;;;;5036496;28;20207;-77
2023/07/26 04:46:29;;;;;;;15.27;14.07;;;13.30;99.90;;;;;;5035220;28;20569;-77
2023/07/26 04:48:57;;;;;;;14.90;13.90;;;13.30;99.90;;;;;;5036860;28;20203;-77
2023/07/26 04:51:24;;;;;;;14.70;13.60;;;13.30;99.90;;;;;;5037575;28;20196;-81
2023/07/26 04:53:51;;;;;;;14.93;13.83;;;13.30;99.90;;;;;;5035850;28;20313;-78
2023/07/26 04:56:18;;;;;;;14.73;13.77;;;13.40;99.90;;;;;;5044594;28;20206;-77
2023/07/26 04:58:45;;;;;;;15.73;14.60;;;13.40;99.90;;;;;;5045088;28;20203;-77
2023/07/26 05:01:11;;;;;;;14.83;13.73;;;13.40;99.90;;;;;;5044859;28;20223;-80
2023/07/26 05:03:38;;;;;;;15.30;14.20;;;13.50;99.90;;;;;;5045781;28;20211;-78
2023/07/26 05:06:07;;;;;;;14.07;13.07;;;13.60;99.90;;;;;;5036240;28;20250;-77
2023/07/26 05:08:34;;;;;;;8.60;7.90;;;13.70;99.90;;;;;;5050498;28;20282;-78
2023/07/26 05:11:01;;;;;;;15.33;14.33;;;13.70;99.90;;;;;;5046447;28;20223;-76
2023/07/26 05:13:28;;;;;;;9.00;8.30;;;13.80;99.90;;;;;;5048288;28;20298;-77
2023/07/26 05:15:54;;;;;;;9.60;8.73;;;13.90;99.90;;;;;;5047559;28;20257;-77
2023/07/26 05:18:21;;;;;;;9.63;8.83;;;13.90;99.90;;;;;;5041448;28;20191;-77
2023/07/26 05:20:50;;;;;;;11.93;11.03;;;13.90;99.90;;;;;;5044775;28;20243;-76
2023/07/26 05:23:18;;;;;;;9.47;8.67;;;14.00;99.90;;;;;;5044096;28;20659;-77
2023/07/26 05:25:45;;;;;;;15.57;14.47;;;14.00;99.90;;;;;;5043966;28;20737;-76
2023/07/26 05:28:12;;;;;;;9.17;8.33;;;14.00;99.90;;;;;;5039696;28;20191;-77
2023/07/26 05:30:39;;;;;;;9.00;8.30;;;14.00;99.90;;;;;;5040353;28;20723;-78
2023/07/26 05:33:06;;;;;;;16.07;14.73;;;14.10;99.90;;;;;;5037769;28;20195;-77
2023/07/26 05:35:33;;;;;;;16.20;15.20;;;14.10;99.90;;;;;;5043826;28;20695;-76
2023/07/26 05:38:00;;;;;;;15.60;14.30;;;14.10;99.90;;;;;;5041257;28;20208;-76
2023/07/26 05:40:28;;;;;;;9.60;8.80;;;14.10;99.90;;;;;;5034274;28;20276;-77
2023/07/26 05:42:55;;;;;;;8.70;7.97;;;14.20;99.90;;;;;;5038389;28;20192;-77
2023/07/26 05:45:22;;;;;;;8.90;8.10;;;14.20;99.90;;;;;;5039864;28;20232;-77
2023/07/26 05:47:49;;;;;;;11.03;10.13;;;14.20;99.90;;;;;;5034719;28;20231;-77
2023/07/26 05:50:16;;;;;;;9.80;8.90;;;14.30;99.90;;;;;;5034535;28;20193;-76
2023/07/26 05:52:43;;;;;;;15.30;14.30;;;14.30;99.90;;;;;;5040688;28;20202;-77
2023/07/26 05:55:10;;;;;;;15.93;14.83;;;14.30;99.90;;;;;;5032971;28;20225;-77
2023/07/26 05:57:38;;;;;;;10.27;9.27;;;14.30;99.90;;;;;;5040493;28;20200;-77
2023/07/26 06:00:07;;;;;;;9.57;8.73;;;14.20;99.90;;;;;;5038665;28;20207;-77
2023/07/26 06:02:38;;;;;;;16.40;15.27;;;14.20;99.90;;;;;;5048945;28;20196;-78
2023/07/26 06:05:06;;;;;;;10.03;9.13;;;14.20;99.90;;;;;;5045813;28;20278;-76
2023/07/26 06:07:33;;;;;;;8.37;7.67;;;14.20;99.90;;;;;;5043482;28;20257;-76
2023/07/26 06:10:01;;;;;;;9.00;8.10;;;14.20;99.90;;;;;;5051029;28;20283;-77
2023/07/26 06:12:27;;;;;;;8.17;7.37;;;14.30;99.90;;;;;;5044104;28;20212;-77
2023/07/26 06:14:56;;;;;;;6.93;6.33;;;14.40;99.90;;;;;;5053505;28;20240;-77
2023/07/26 06:17:22;;;;;;;8.00;7.20;;;14.40;99.90;;;;;;5046093;28;20290;-77
2023/07/26 06:19:49;;;;;;;7.43;6.83;;;14.40;99.90;;;;;;5052899;28;20197;-76
2023/07/26 06:22:16;;;;;;;13.80;12.70;;;14.40;99.90;;;;;;5040162;28;20203;-76
2023/07/26 06:24:43;;;;;;;14.27;13.27;;;14.40;99.90;;;;;;5050873;28;20215;-76
2023/07/26 06:27:10;;;;;;;11.20;9.97;;;14.40;99.90;;;;;;5039141;28;20197;-76
2023/07/26 06:29:37;;;;;;;6.63;6.03;;;14.30;99.90;;;;;;5046911;28;20227;-74
2023/07/26 06:32:06;;;;;;;7.23;6.53;;;14.30;99.90;;;;;;5031375;28;20218;-74
2023/07/26 06:34:32;;;;;;;6.60;6.00;;;14.30;99.90;;;;;;5045329;28;20597;-74
2023/07/26 06:36:59;;;;;;;7.03;6.33;;;14.40;99.90;;;;;;5044391;28;20195;-74
2023/07/26 06:39:28;;;;;;;7.17;6.57;;;14.50;99.90;;;;;;5036865;28;20255;-74
2023/07/26 06:41:54;;;;;;;9.17;8.50;;;14.70;99.90;;;;;;5042592;28;20263;-74
2023/07/26 06:44:21;;;;;;;9.47;8.57;;;15.00;99.90;;;;;;5045066;28;20213;-74
2023/07/26 06:46:48;;;;;;;10.30;9.50;;;15.50;99.90;;;;;;5047039;28;20223;-74
2023/07/26 06:49:16;;;;;;;7.90;7.10;;;16.30;99.90;;;;;;5031481;28;20246;-74
2023/07/26 06:51:43;;;;;;;9.30;8.40;;;17.10;99.90;;;;;;5031762;28;20584;-74
2023/07/26 06:54:10;;;;;;;6.53;5.97;;;17.30;99.90;;;;;;5048141;28;20218;-74
2023/07/26 06:56:37;;;;;;;6.10;5.03;;;17.30;99.90;;;;;;5042977;28;20832;-74
2023/07/26 06:59:08;;;;;;;7.10;6.40;;;17.30;99.90;;;;;;5035506;28;20217;-75
2023/07/26 07:01:35;;;;;;;12.20;11.20;;;17.10;99.90;;;;;;5031550;28;20223;-75
2023/07/26 07:04:02;;;;;;;5.30;4.80;;;17.10;99.90;;;;;;5041780;28;20221;-74
2023/07/26 07:06:30;;;;;;;8.43;7.83;;;16.90;99.90;;;;;;5044956;28;20214;-74
2023/07/26 07:08:57;;;;;;;7.83;7.10;;;16.80;99.90;;;;;;5048216;28;20230;-75
2023/07/26 07:11:24;;;;;;;8.03;7.23;;;16.80;99.90;;;;;;5046143;28;20194;-74
2023/07/26 07:13:51;;;;;;;8.80;6.37;;;16.80;99.90;;;;;;5041756;28;20216;-74
2023/07/26 07:16:17;;;;;;;7.50;6.13;;;16.90;99.90;;;;;;5045078;28;20202;-74
2023/07/26 07:18:44;;;;;;;9.47;6.87;;;16.90;99.90;;;;;;5042664;28;20192;-75
2023/07/26 07:21:11;;;;;;;10.87;10.00;;;16.60;99.90;;;;;;5034656;28;20211;-74
2023/07/26 07:23:39;;;;;;;9.67;8.80;;;16.50;99.90;;;;;;5031880;28;20285;-74
2023/07/26 07:26:06;;;;;;;10.77;9.97;;;16.30;99.90;;;;;;5036239;28;20698;-74
2023/07/26 07:28:33;;;;;;;5.20;4.70;;;16.20;99.90;;;;;;5038936;28;20208;-74
2023/07/26 07:30:59;;;;;;;5.00;4.50;;;16.00;99.90;;;;;;5031137;28;20202;-74
2023/07/26 07:33:26;;;;;;;8.50;7.27;;;16.00;99.90;;;;;;5031363;28;20682;-74
2023/07/26 07:35:53;;;;;;;12.00;11.20;;;15.90;99.90;;;;;;5030918;28;20287;-74
2023/07/26 07:38:20;;;;;;;5.17;4.73;;;15.90;99.90;;;;;;5031106;28;20688;-74
2023/07/26 07:40:49;;;;;;;4.97;4.50;;;16.00;99.90;;;;;;5037413;28;20244;-74
2023/07/26 07:43:16;;;;;;;5.03;4.23;;;16.30;99.90;;;;;;5031020;28;20199;-75
2023/07/26 07:45:43;;;;;;;5.30;4.80;;;16.50;99.90;;;;;;5031077;28;20226;-75
2023/07/26 07:48:12;;;;;;;8.57;7.97;;;16.60;99.90;;;;;;5038908;28;20191;-75
2023/07/26 07:50:39;;;;;;;4.90;4.50;;;16.60;99.90;;;;;;5030853;28;20694;-74
2023/07/26 07:53:06;;;;;;;7.97;7.37;;;16.50;99.90;;;;;;5038649;28;20273;-75
2023/07/26 07:55:34;;;;;;;6.90;6.10;;;16.50;99.90;;;;;;5030931;28;20222;-75
2023/07/26 07:58:03;;;;;;;5.77;4.20;;;16.40;99.90;;;;;;5030683;28;20198;-74
2023/07/26 08:00:31;;;;;;;6.63;4.33;;;16.30;99.90;;;;;;5032352;28;20540;-74
2023/07/26 08:02:58;;;;;;;5.40;4.90;;;16.10;99.90;;;;;;5030984;28;20286;-74
2023/07/26 08:05:25;;;;;;;5.00;4.50;;;15.90;99.90;;;;;;5030843;28;20235;-74
2023/07/26 08:07:52;;;;;;;5.67;4.90;;;15.80;99.90;;;;;;5030756;28;20207;-74
2023/07/26 08:10:19;;;;;;;6.10;4.83;;;15.60;99.90;;;;;;5040514;28;20244;-74
2023/07/26 08:12:46;;;;;;;10.87;6.40;;;15.40;99.90;;;;;;5042204;28;20206;-74
2023/07/26 08:15:14;;;;;;;13.03;12.10;;;15.20;99.90;;;;;;5033026;28;20262;-74
2023/07/26 08:17:41;;;;;;;10.40;9.43;;;15.00;99.90;;;;;;5029721;28;20208;-75
2023/07/26 08:20:09;;;;;;;11.90;10.83;;;14.90;99.90;;;;;;5033481;28;20202;-74
2023/07/26 08:22:36;;;;;;;14.53;13.27;;;14.70;99.90;;;;;;5030836;28;20622;-74
2023/07/26 08:25:03;;;;;;;6.50;5.90;;;14.50;99.90;;;;;;5030544;28;20224;-74
2023/07/26 08:27:31;;;;;;;12.10;11.10;;;14.50;99.90;;;;;;5036272;28;20203;-74
2023/07/26 08:29:58;;;;;;;15.83;14.73;;;14.50;99.90;;;;;;5038922;28;20206;-74
2023/07/26 08:32:26;;;;;;;8.27;7.67;;;14.40;99.90;;;;;;5034335;28;20196;-74
2023/07/26 08:34:52;;;;;;;10.13;9.33;;;14.40;99.90;;;;;;5032772;28;20714;-74
2023/07/26 08:37:19;;;;;;;12.80;11.87;;;14.40;99.90;;;;;;5032904;28;20200;-74
2023/07/26 08:39:46;;;;;;;12.47;11.47;;;14.50;99.90;;;;;;5033781;28;20205;-74
2023/07/26 08:42:13;;;;;;;7.13;6.43;;;14.40;99.90;;;;;;5033869;28;20221;-74
2023/07/26 08:44:41;;;;;;;6.63;6.00;;;14.30;99.90;;;;;;5037280;28;20221;-74
2023/07/26 08:47:10;;;;;;;12.87;11.87;;;14.30;99.90;;;;;;5037359;28;20574;-75
2023/07/26 08:49:38;;;;;;;8.70;8.00;;;14.20;99.90;;;;;;5033748;28;20390;-74
2023/07/26 08:52:06;;;;;;;6.17;5.57;;;14.10;99.90;;;;;;5032738;28;20200;-74
2023/07/26 08:54:34;;;;;;;11.23;10.53;;;14.00;99.90;;;;;;5034602;28;20226;-75
2023/07/26 08:57:01;;;;;;;11.10;10.30;;;14.00;99.90;;;;;;5033481;28;20207;-74
2023/07/26 08:59:29;;;;;;;11.93;11.20;;;13.90;99.90;;;;;;5035681;28;20670;-74
2023/07/26 09:01:57;;;;;;;12.03;11.33;;;13.90;99.90;;;;;;5033939;28;20238;-74
2023/07/26 09:04:25;;;;;;;10.70;10.00;;;13.80;99.90;;;;;;5032279;28;20710;-76
2023/07/26 09:06:54;;;;;;;12.27;11.57;;;13.70;99.90;;;;;;5034896;28;20247;-77
2023/07/26 09:09:21;;;;;;;12.10;11.40;;;13.70;99.90;;;;;;5036364;28;20281;-76
2023/07/26 09:11:52;;;;;;;13.23;12.43;;;13.60;99.90;;;;;;5036504;28;20200;-77
2023/07/26 09:14:19;;;;;;;12.13;11.33;;;13.50;99.90;;;;;;5047062;28;20228;-77
2023/07/26 09:16:45;;;;;;;11.30;10.70;;;13.50;99.90;;;;;;5042783;28;20266;-78
2023/07/26 09:19:13;;;;;;;11.20;10.50;;;13.50;99.90;;;;;;5049328;28;20196;-77
2023/07/26 09:21:40;;;;;;;11.30;10.60;;;13.60;99.90;;;;;;5044785;28;20223;-78
2023/07/26 09:24:08;;;;;;;12.17;11.27;;;13.50;99.90;;;;;;5044995;28;20223;-77
2023/07/26 09:26:39;;;;;;;11.53;10.73;;;13.50;99.90;;;;;;5058231;28;20222;-78
2023/07/26 09:29:09;;;;;;;12.07;11.10;;;13.40;99.90;;;;;;5048853;28;20216;-78
2023/07/26 09:31:38;;;;;;;11.90;11.20;;;13.50;99.90;;;;;;5045329;28;20214;-76
2023/07/26 09:34:07;;;;;;;11.40;10.70;;;13.50;99.90;;;;;;5051313;28;20229;-77
2023/07/26 09:36:44;;;;;;;11.83;11.13;;;13.50;99.90;;;;;;5056255;28;20579;-78
2023/07/26 09:39:13;;;;;;;9.93;9.20;;;13.60;99.90;;;;;;5048835;28;20195;-77
2023/07/26 09:41:40;;;;;;;10.17;9.47;;;13.50;99.90;;;;;;5044555;28;20207;-77
2023/07/26 09:44:08;;;;;;;7.93;7.43;;;13.50;99.90;;;;;;5039101;28;20266;-77
2023/07/26 09:46:51;;;;;;;9.30;8.70;;;13.60;99.90;;;;;;5052034;28;20204;-80
2023/07/26 09:49:21;;;;;;;7.77;7.23;;;13.60;99.90;;;;;;5037538;28;20204;-78
2023/07/26 09:51:48;;;;;;;4.47;3.70;;;13.80;99.90;;;;;;5045878;28;20196;-77
2023/07/26 09:54:16;;;;;;;3.67;3.40;;;14.10;99.90;;;;;;5044157;28;20219;-77
2023/07/26 09:56:43;;;;;;;9.10;8.53;;;14.90;99.90;;;;;;5050147;28;20200;-77
2023/07/26 09:59:11;;;;;;;4.97;4.60;;;15.80;99.90;;;;;;5054133;28;20208;-77
2023/07/26 10:01:41;;;;;;;5.67;5.17;;;16.50;99.90;;;;;;5038069;28;20242;-77
2023/07/26 10:04:12;;;;;;;3.27;2.97;;;16.70;99.90;;;;;;5046123;28;20222;-77
2023/07/26 10:06:42;;;;;;;4.00;3.80;;;17.30;99.90;;;;;;5052360;28;20204;-77
2023/07/26 10:09:12;;;;;;;3.30;3.10;;;17.80;99.90;;;;;;5048183;28;20231;-78
2023/07/26 10:11:42;;;;;;;3.17;2.80;;;18.20;99.90;;;;;;5060052;28;20200;-77
2023/07/26 10:14:10;;;;;;;5.80;5.40;;;18.10;99.90;;;;;;5050339;28;20228;-78
2023/07/26 10:16:38;;;;;;;4.20;4.00;;;18.10;99.90;;;;;;5047174;28;20254;-77
2023/07/26 10:19:06;;;;;;;5.13;4.80;;;18.30;99.90;;;;;;5048679;28;20221;-77
2023/07/26 10:21:34;;;;;;;5.27;4.97;;;18.20;99.90;;;;;;5048795;28;20252;-78
2023/07/26 10:24:03;;;;;;;7.93;7.33;;;18.00;99.90;;;;;;5040425;28;20220;-77
2023/07/26 10:26:32;;;;;;;4.13;3.77;;;17.70;99.90;;;;;;5057306;28;20291;-77
2023/07/26 10:29:01;;;;;;;5.80;5.40;;;17.20;99.90;;;;;;5054749;28;20203;-77
2023/07/26 10:31:28;;;;;;;6.87;6.37;;;16.80;99.90;;;;;;5055161;28;20198;-78
2023/07/26 10:33:56;;;;;;;6.03;5.43;;;16.40;99.90;;;;;;5052132;28;20664;-77
2023/07/26 10:36:29;;;;;;;6.30;5.67;;;16.00;99.90;;;;;;5041437;28;20195;-77
2023/07/26 10:38:56;;;;;;;6.13;4.10;;;15.80;99.90;;;;;;5048174;28;20222;-77
2023/07/26 10:41:27;;;;;;;6.57;6.07;;;15.60;99.90;;;;;;5045132;28;20210;-76
2023/07/26 10:44:07;;;;;;;5.33;4.83;;;15.50;99.90;;;;;;5049433;28;20231;-76
2023/07/26 10:46:48;;;;;;;3.70;3.30;;;15.50;99.90;;;;;;5037357;28;20204;-76
2023/07/26 10:49:20;;;;;;;6.30;5.80;;;15.70;99.90;;;;;;5042710;28;20642;-76
2023/07/26 10:51:56;;;;;;;4.07;3.77;;;15.80;99.90;;;;;;5033384;28;20208;-76
2023/07/26 10:54:37;;;;;;;3.33;3.00;;;16.00;99.90;;;;;;5051485;28;20222;-75
2023/07/26 10:57:18;;;;;;;3.40;3.00;;;16.40;99.90;;;;;;5037241;28;20207;-77
2023/07/26 11:00:00;;;;;;;5.80;5.30;;;16.60;99.90;;;;;;5043546;28;20187;-77
2023/07/26 11:02:44;;;;;;;5.57;5.17;;;17.00;99.90;;;;;;5042406;28;20216;-77
2023/07/26 11:05:14;;;;;;;5.20;4.80;;;17.60;99.90;;;;;;5040956;28;20229;-76
2023/07/26 11:07:59;;;;;;;3.80;3.33;;;17.70;99.90;;;;;;5037147;28;20200;-77
2023/07/26 11:10:28;;;;;;;3.30;3.10;;;17.70;99.90;;;;;;5042250;28;20294;-77
2023/07/26 11:13:07;;;;;;;5.57;5.10;;;17.60;99.90;;;;;;5046152;28;20193;-77
2023/07/26 11:15:37;;;;;;;6.87;6.37;;;17.60;99.90;;;;;;5039123;28;20216;-77
2023/07/26 11:18:04;;;;;;;5.37;4.97;;;17.50;99.90;;;;;;5047472;28;20196;-77
2023/07/26 11:20:31;;;;;;;6.03;5.63;;;17.40;99.90;;;;;;5032576;28;20564;-77
2023/07/26 11:22:58;;;;;;;6.67;6.27;;;17.40;99.90;;;;;;5040371;28;20230;-76
2023/07/26 11:25:25;;;;;;;4.83;4.53;;;17.50;99.90;;;;;;5041126;28;20266;-76
2023/07/26 11:27:54;;;;;;;7.20;6.60;;;17.50;99.90;;;;;;5037311;28;20225;-77
2023/07/26 11:30:22;;;;;;;5.03;4.63;;;17.60;99.90;;;;;;5043755;28;20681;-77
2023/07/26 11:32:51;;;;;;;6.27;5.87;;;17.60;99.90;;;;;;5046556;28;20564;-77
2023/07/26 11:35:20;;;;;;;6.73;6.23;;;17.80;99.90;;;;;;5046687;28;20608;-76
2023/07/26 11:37:54;;;;;;;5.23;4.87;;;17.90;99.90;;;;;;5039225;28;20206;-77
2023/07/26 11:40:21;;;;;;;6.30;5.80;;;18.20;99.90;;;;;;5036341;28;20677;-78
2023/07/26 11:42:49;;;;;;;3.00;2.80;;;18.50;99.90;;;;;;5046241;28;20210;-77
2023/07/26 11:45:16;;;;;;;5.53;5.13;;;18.70;99.90;;;;;;5034984;28;20214;-77
2023/07/26 11:47:44;;;;;;;4.93;4.63;;;19.00;99.90;;;;;;5047709;28;20221;-78
2023/07/26 11:50:18;;;;;;;5.70;5.30;;;19.00;99.90;;;;;;5050173;28;20262;-77
2023/07/26 11:52:45;;;;;;;5.33;5.00;;;19.10;99.90;;;;;;5041215;28;20210;-77
2023/07/26 11:55:12;;;;;;;5.90;5.50;;;19.20;99.90;;;;;;5038675;28;20756;-77
2023/07/26 11:57:38;;;;;;;2.90;2.70;;;19.30;99.90;;;;;;5049860;28;20199;-77
2023/07/26 12:00:07;;;;;;;6.27;5.87;;;19.40;99.90;;;;;;5050281;28;20192;-77
2023/07/26 12:02:41;;;;;;;2.93;2.73;;;19.60;99.90;;;;;;5046680;28;20265;-78
2023/07/26 12:05:20;;;;;;;7.17;6.60;;;19.50;99.90;;;;;;5051961;28;20231;-77
2023/07/26 12:07:48;;;;;;;7.60;7.10;;;19.40;99.90;;;;;;5043867;28;20245;-77
2023/07/26 12:10:16;;;;;;;7.23;6.73;;;19.40;99.90;;;;;;5054612;28;20257;-78
2023/07/26 12:12:44;;;;;;;8.07;7.47;;;19.30;99.90;;;;;;5044966;28;20651;-77
2023/07/26 12:15:11;;;;;;;9.30;8.70;;;19.20;99.90;;;;;;5053528;28;20238;-77
2023/07/26 12:17:53;;;;;;;7.57;7.07;;;19.20;99.90;;;;;;5057463;28;20266;-77
2023/07/26 12:20:22;;;;;;;2.60;2.40;;;19.10;99.90;;;;;;5049276;28;20202;-77
2023/07/26 12:22:53;;;;;;;4.97;4.57;;;19.10;99.90;;;;;;5053947;28;20645;-77
2023/07/26 12:25:21;;;;;;;8.10;7.60;;;19.10;99.90;;;;;;5040075;28;20265;-78
2023/07/26 12:27:49;;;;;;;7.80;7.30;;;19.10;99.90;;;;;;5057094;28;20658;-78
2023/07/26 12:30:19;;;;;;;8.97;8.47;;;19.10;99.90;;;;;;5043882;28;20200;-77
2023/07/26 12:32:46;;;;;;;7.93;7.43;;;19.10;99.90;;;;;;5045655;28;20206;-77
2023/07/26 12:35:23;;;;;;;8.00;7.50;;;19.10;99.90;;;;;;5043279;28;20219;-78
2023/07/26 12:37:50;;;;;;;8.00;7.50;;;19.10;99.90;;;;;;5041441;28;20245;-76
2023/07/26 12:40:20;;;;;;;8.07;7.57;;;19.10;99.90;;;;;;5050026;28;20195;-77